Time;durP1;ratioP1;P1;durP2;ratioP2;P2;SDS_P1;SDS_P2;PMS_P1;PMS_P2;Temp;Humidity;BMP_temperature;BMP_pressure;BME280_temperature;BME280_humidity;BME280_pressure;Samples;Min_cycle;Max_cycle;Signal;HPM_P1;HPM_P2
2022/04/30 00:00:34;;;;;;;14.05;7.70;;;;;;;6.93;71.83;102828.81;5015177;28;20860;-57
2022/04/30 00:03:00;;;;;;;13.55;7.35;;;;;;;6.91;71.68;102822.78;5028517;28;20033;-58
2022/04/30 00:05:29;;;;;;;15.25;7.65;;;;;;;6.83;71.97;102824.06;5019818;28;20025;-58
2022/04/30 00:07:54;;;;;;;15.93;7.35;;;;;;;6.78;71.76;102831.41;5023897;28;20033;-58
2022/04/30 00:10:19;;;;;;;11.85;6.95;;;;;;;6.81;71.57;102825.94;5018428;28;20409;-58
2022/04/30 00:12:44;;;;;;;13.60;6.80;;;;;;;6.92;71.39;102829.75;5023032;28;20032;-57
2022/04/30 00:15:10;;;;;;;11.63;6.57;;;;;;;6.71;72.25;102833.53;5018714;28;20026;-58
2022/04/30 00:17:35;;;;;;;10.80;6.78;;;;;;;6.79;71.68;102827.81;5024118;28;20037;-57
2022/04/30 00:20:03;;;;;;;11.75;6.82;;;;;;;6.62;72.81;102820.88;5017557;28;20087;-57
2022/04/30 00:22:28;;;;;;;12.27;6.47;;;;;;;6.59;73.11;102829.81;5018689;28;20021;-58
2022/04/30 00:24:53;;;;;;;10.88;6.30;;;;;;;6.61;72.68;102823.59;5016623;28;20598;-58
2022/04/30 00:27:20;;;;;;;10.35;6.22;;;;;;;6.59;72.20;102829.81;5018433;28;20034;-58
2022/04/30 00:29:46;;;;;;;13.57;6.35;;;;;;;6.55;72.57;102825.63;5016860;28;20056;-57
2022/04/30 00:32:12;;;;;;;12.63;6.60;;;;;;;6.61;72.16;102834.13;5017531;28;20059;-57
2022/04/30 00:34:40;;;;;;;11.73;6.70;;;;;;;6.44;73.58;102833.28;5019761;28;20516;-57
2022/04/30 00:37:05;;;;;;;13.18;6.57;;;;;;;6.33;73.91;102829.44;5016704;28;20036;-57
2022/04/30 00:39:31;;;;;;;8.40;5.95;;;;;;;6.31;73.47;102828.69;5025419;28;20034;-58
2022/04/30 00:41:56;;;;;;;11.52;5.90;;;;;;;6.29;74.34;102822.66;5021368;28;20476;-57
2022/04/30 00:44:21;;;;;;;11.43;6.20;;;;;;;6.15;74.24;102827.81;5021317;28;20100;-58
2022/04/30 00:46:47;;;;;;;10.30;5.90;;;;;;;6.14;74.24;102818.22;5021625;28;20041;-58
2022/04/30 00:49:13;;;;;;;12.18;6.00;;;;;;;6.03;75.30;102817.00;5017534;28;20042;-58
2022/04/30 00:51:40;;;;;;;11.13;6.05;;;;;;;5.95;76.17;102818.31;5008842;28;20056;-58
2022/04/30 00:54:07;;;;;;;13.13;6.78;;;;;;;5.92;75.64;102819.31;5017969;28;20083;-57
2022/04/30 00:56:34;;;;;;;11.13;6.53;;;;;;;5.84;76.21;102816.25;5019461;28;20037;-58
2022/04/30 00:59:04;;;;;;;10.00;6.63;;;;;;;5.89;76.60;102811.59;5012546;28;20091;-58
2022/04/30 01:01:35;;;;;;;9.15;6.05;;;;;;;5.85;76.37;102807.44;5023971;28;20037;-57
2022/04/30 01:04:00;;;;;;;11.32;6.60;;;;;;;5.77;76.85;102810.47;5014514;28;20045;-58
2022/04/30 01:06:51;;;;;;;13.27;6.53;;;;;;;5.82;76.43;102810.22;5019090;28;20030;-57
2022/04/30 01:09:32;;;;;;;10.95;6.38;;;;;;;5.87;76.45;102810.84;5013797;28;20033;-58
2022/04/30 01:12:01;;;;;;;9.90;6.38;;;;;;;5.77;76.30;102811.31;5026680;28;20495;-58
2022/04/30 01:14:29;;;;;;;10.13;6.75;;;;;;;5.81;76.86;102813.81;5019588;28;20124;-58
2022/04/30 01:16:57;;;;;;;11.23;6.57;;;;;;;5.69;77.10;102808.25;5030658;28;20072;-58
2022/04/30 01:19:23;;;;;;;12.05;6.50;;;;;;;5.66;76.58;102805.75;5011265;28;20026;-58
2022/04/30 01:21:51;;;;;;;11.40;6.72;;;;;;;5.67;77.92;102804.00;5021712;28;20052;-57
2022/04/30 01:24:24;;;;;;;11.35;6.60;;;;;;;5.68;77.91;102810.97;5017577;28;20061;-58
2022/04/30 01:26:55;;;;;;;14.63;6.50;;;;;;;5.56;77.92;102809.81;5020039;28;20511;-58
2022/04/30 01:29:25;;;;;;;12.20;6.68;;;;;;;5.48;78.75;102800.53;5013672;28;20037;-59
2022/04/30 01:37:25;;;;;;;12.52;6.40;;;;;;;5.41;79.95;102793.88;5013767;28;20048;-57
2022/04/30 01:39:56;;;;;;;10.57;6.32;;;;;;;5.48;79.05;102800.53;5009704;28;20026;-57
2022/04/30 01:42:22;;;;;;;10.30;6.30;;;;;;;5.44;78.95;102793.75;5023182;28;20099;-58
2022/04/30 01:44:48;;;;;;;11.43;6.43;;;;;;;5.48;79.15;102797.91;5018393;28;20033;-58
2022/04/30 01:47:15;;;;;;;16.40;7.00;;;;;;;5.51;78.40;102795.13;5013986;28;20129;-58
2022/04/30 01:49:41;;;;;;;12.00;6.10;;;;;;;5.58;78.79;102797.44;5021113;28;20041;-57
2022/04/30 01:52:08;;;;;;;15.27;6.82;;;;;;;5.52;78.81;102794.19;5023169;28;20033;-58
2022/04/30 01:54:34;;;;;;;10.65;6.90;;;;;;;5.55;78.95;102793.16;5022072;28;20033;-58
2022/04/30 01:56:59;;;;;;;12.93;6.60;;;;;;;5.50;79.12;102796.06;5015058;28;20038;-58
2022/04/30 01:59:24;;;;;;;12.10;6.65;;;;;;;5.44;78.88;102796.38;5012506;28;20053;-57
2022/04/30 02:01:51;;;;;;;10.88;6.45;;;;;;;5.48;78.79;102795.25;5019800;28;20547;-58
2022/04/30 02:04:17;;;;;;;14.38;6.63;;;;;;;5.47;79.55;102790.94;5029241;28;20026;-58
2022/04/30 02:06:43;;;;;;;16.33;7.20;;;;;;;5.41;79.69;102785.13;5017256;28;20042;-56
2022/04/30 02:09:09;;;;;;;13.93;6.90;;;;;;;5.31;79.62;102776.88;5010035;28;20038;-58
2022/04/30 02:11:35;;;;;;;13.70;7.13;;;;;;;5.25;80.41;102778.03;5011840;28;20033;-58
2022/04/30 02:14:02;;;;;;;13.82;7.20;;;;;;;5.22;80.09;102779.03;5008317;28;20117;-58
2022/04/30 02:16:28;;;;;;;11.38;7.40;;;;;;;5.23;80.01;102778.13;5012695;28;20037;-57
2022/04/30 02:18:56;;;;;;;15.65;7.28;;;;;;;5.24;80.63;102774.53;5009775;28;20101;-58
2022/04/30 02:21:23;;;;;;;14.57;7.30;;;;;;;5.24;80.88;102777.19;5011816;28;20045;-58
2022/04/30 02:23:48;;;;;;;14.55;7.38;;;;;;;5.24;79.94;102768.44;5016293;28;20052;-58
2022/04/30 02:26:16;;;;;;;14.32;7.47;;;;;;;5.23;80.22;102778.13;5019630;28;20042;-58
2022/04/30 02:28:42;;;;;;;16.02;7.43;;;;;;;5.28;80.25;102777.03;5011083;28;20034;-57
2022/04/30 02:31:07;;;;;;;15.85;7.63;;;;;;;5.31;80.18;102776.88;5018426;28;20025;-57
2022/04/30 02:33:33;;;;;;;14.50;7.50;;;;;;;5.26;80.74;102763.94;5019314;28;20076;-57
2022/04/30 02:35:58;;;;;;;13.52;7.53;;;;;;;5.18;80.67;102764.34;5012251;28;20033;-58
2022/04/30 02:38:26;;;;;;;12.70;7.40;;;;;;;5.25;80.19;102763.09;5011848;28;20034;-58
2022/04/30 02:40:51;;;;;;;13.80;7.68;;;;;;;5.23;80.85;102769.38;5013572;28;20037;-58
2022/04/30 02:43:19;;;;;;;17.08;8.77;;;;;;;5.11;80.69;102762.97;5011978;28;20376;-58
2022/04/30 02:45:45;;;;;;;13.00;7.60;;;;;;;4.97;81.30;102751.38;5012533;28;20412;-58
2022/04/30 02:48:15;;;;;;;14.57;7.85;;;;;;;5.04;81.79;102764.19;5012124;28;20129;-58
2022/04/30 02:50:41;;;;;;;15.45;8.07;;;;;;;5.16;81.08;102757.44;5012348;28;20018;-57
2022/04/30 02:53:06;;;;;;;13.57;8.15;;;;;;;5.11;81.48;102757.69;5011224;28;20491;-57
2022/04/30 02:55:32;;;;;;;15.20;8.20;;;;;;;5.16;82.13;102763.56;5020910;28;20034;-57
2022/04/30 03:00:42;;;;;;;14.80;7.50;;;;;;;5.24;81.69;102758.75;5019499;28;20078;-58
2022/04/30 03:03:12;;;;;;;14.73;7.90;;;;;;;5.21;80.88;102753.69;5017119;28;20029;-57
2022/04/30 03:05:43;;;;;;;16.13;8.02;;;;;;;5.23;81.00;102764.13;5015006;28;20071;-58
2022/04/30 03:08:12;;;;;;;14.82;8.25;;;;;;;5.21;81.92;102761.56;5017614;28;20057;-58
2022/04/30 03:10:39;;;;;;;14.98;7.93;;;;;;;5.21;81.47;102765.97;5011751;28;20029;-58
2022/04/30 03:13:05;;;;;;;14.35;8.05;;;;;;;5.17;81.11;102760.00;5014325;28;20022;-57
2022/04/30 03:15:32;;;;;;;14.85;8.32;;;;;;;5.14;81.44;102757.56;5006603;28;20077;-58
2022/04/30 03:23:25;;;;;;;14.45;8.43;;;;;;;5.07;80.98;102758.78;4999025;28;20184;-57
2022/04/30 03:25:50;;;;;;;14.02;8.70;;;;;;;4.95;81.72;102755.00;5025697;28;20116;-58
2022/04/30 03:28:15;;;;;;;15.63;9.23;;;;;;;5.00;81.97;102752.13;5012542;28;20041;-57
2022/04/30 03:30:40;;;;;;;16.27;8.65;;;;;;;4.91;82.44;102749.03;5008559;28;20037;-58
2022/04/30 03:33:09;;;;;;;16.65;8.35;;;;;;;4.92;82.35;102750.75;5012618;28;20069;-58
2022/04/30 03:35:38;;;;;;;19.33;9.48;;;;;;;4.84;82.27;102748.47;5016073;28;20482;-58
2022/04/30 03:38:04;;;;;;;17.45;9.27;;;;;;;4.76;82.59;102739.28;5011157;28;20637;-58
2022/04/30 03:40:29;;;;;;;17.40;9.27;;;;;;;4.78;82.58;102740.06;5012636;28;20026;-57
2022/04/30 03:42:55;;;;;;;16.85;9.75;;;;;;;4.80;82.85;102735.59;5018817;28;20117;-58
2022/04/30 03:45:20;;;;;;;17.50;9.18;;;;;;;4.85;82.35;102737.03;5008473;28;20397;-57
2022/04/30 03:47:45;;;;;;;19.17;10.05;;;;;;;4.80;83.02;102735.59;5015023;28;20029;-57
2022/04/30 03:50:11;;;;;;;16.52;9.60;;;;;;;4.90;82.43;102739.47;5016690;28;20062;-57
2022/04/30 03:52:36;;;;;;;16.27;9.35;;;;;;;5.01;83.37;102738.03;4999047;28;20092;-58
2022/04/30 03:55:02;;;;;;;17.10;9.27;;;;;;;4.95;82.85;102734.78;5008316;28;20065;-57
2022/04/30 03:57:28;;;;;;;15.57;8.82;;;;;;;5.03;81.99;102736.22;5006040;28;20034;-56
2022/04/30 03:59:54;;;;;;;16.38;9.30;;;;;;;5.03;82.78;102736.22;5009498;28;20121;-58
2022/04/30 04:02:19;;;;;;;16.90;9.23;;;;;;;4.98;82.64;102739.91;5002564;28;20117;-58
2022/04/30 04:04:45;;;;;;;17.77;9.10;;;;;;;4.97;82.26;102737.34;5008522;28;20038;-58
2022/04/30 04:07:10;;;;;;;18.17;9.05;;;;;;;4.93;82.38;102736.66;5023911;28;20026;-58
2022/04/30 04:09:36;;;;;;;14.55;8.77;;;;;;;4.89;82.89;102737.72;5012742;28;20042;-57
2022/04/30 04:12:01;;;;;;;17.13;9.52;;;;;;;4.87;82.91;102747.47;5011606;28;20030;-58
2022/04/30 04:19:55;;;;;;;18.83;10.13;;;;;;;4.83;82.92;102736.28;5018720;28;20403;-57
2022/04/30 04:22:20;;;;;;;18.48;9.90;;;;;;;4.82;83.78;102736.34;5011116;28;20046;-57
2022/04/30 04:27:29;;;;;;;19.27;10.20;;;;;;;4.74;82.97;102738.50;5014657;28;20546;-58
2022/04/30 04:29:55;;;;;;;20.23;10.33;;;;;;;4.79;83.44;102744.41;5016908;28;20113;-57
2022/04/30 04:32:21;;;;;;;19.50;10.20;;;;;;;4.77;83.58;102746.22;5024431;28;20472;-57
2022/04/30 04:34:46;;;;;;;17.23;10.27;;;;;;;4.80;82.33;102746.09;5020572;28;20033;-57
2022/04/30 04:37:11;;;;;;;17.00;9.80;;;;;;;4.94;82.97;102743.63;5024960;28;20038;-57
2022/04/30 04:39:37;;;;;;;17.67;10.10;;;;;;;5.00;82.96;102752.13;5018168;28;20030;-57
2022/04/30 04:42:03;;;;;;;20.10;10.63;;;;;;;5.06;82.25;102752.69;5018864;28;20038;-57
2022/04/30 04:44:29;;;;;;;20.07;10.70;;;;;;;5.05;82.20;102750.13;5016848;28;20038;-57
2022/04/30 04:46:54;;;;;;;17.45;10.55;;;;;;;5.02;83.14;102750.28;5020120;28;20133;-57
2022/04/30 04:49:20;;;;;;;19.27;10.82;;;;;;;5.03;83.26;102759.88;5012795;28;20034;-57
2022/04/30 04:51:45;;;;;;;20.10;10.60;;;;;;;5.01;83.87;102759.06;5021231;28;20137;-57
2022/04/30 04:54:10;;;;;;;19.73;10.90;;;;;;;5.01;83.36;102764.34;5021964;28;20061;-57
2022/04/30 04:56:36;;;;;;;21.55;10.82;;;;;;;4.97;83.68;102763.66;5013647;28;20038;-57
2022/04/30 04:59:01;;;;;;;16.83;9.73;;;;;;;4.91;83.25;102769.22;5013985;28;20038;-57
2022/04/30 05:01:26;;;;;;;17.13;9.77;;;;;;;4.82;83.03;102773.16;5012660;28;20038;-57
2022/04/30 05:03:52;;;;;;;17.35;9.75;;;;;;;4.73;83.09;102769.19;5014149;28;20473;-57
2022/04/30 05:06:17;;;;;;;19.45;10.68;;;;;;;4.66;83.67;102770.44;5015013;28;20026;-57
2022/04/30 05:08:43;;;;;;;21.20;11.03;;;;;;;4.68;84.09;102779.06;5024711;28;20025;-57
2022/04/30 05:11:09;;;;;;;20.30;11.50;;;;;;;4.70;85.13;102783.34;5023759;28;20112;-58
2022/04/30 05:13:34;;;;;;;17.40;10.93;;;;;;;4.76;84.86;102776.06;5018928;28;20189;-57
2022/04/30 05:16:00;;;;;;;19.83;10.73;;;;;;;4.80;85.01;102782.91;5014113;28;20108;-57
2022/04/30 05:18:25;;;;;;;18.03;10.83;;;;;;;4.82;85.07;102771.38;5020073;28;20041;-58
2022/04/30 05:20:50;;;;;;;20.75;11.25;;;;;;;4.86;84.52;102777.34;5018022;28;20029;-57
2022/04/30 05:23:15;;;;;;;18.13;10.60;;;;;;;4.91;84.14;102790.25;5014845;28;20046;-57
2022/04/30 05:25:41;;;;;;;23.47;10.97;;;;;;;4.92;84.78;102782.28;5029253;28;20656;-57
2022/04/30 05:28:09;;;;;;;21.75;11.18;;;;;;;4.94;84.81;102784.84;5015391;28;20443;-58
2022/04/30 05:30:35;;;;;;;22.03;11.70;;;;;;;5.01;84.38;102793.25;5023100;28;20044;-58
2022/04/30 05:33:00;;;;;;;23.23;11.93;;;;;;;5.00;84.71;102783.69;5014316;28;20034;-57
2022/04/30 05:35:25;;;;;;;20.70;11.63;;;;;;;5.05;84.55;102781.69;5012977;28;20054;-57
2022/04/30 05:37:51;;;;;;;20.40;11.38;;;;;;;5.06;84.41;102786.00;5010834;28;20037;-57
2022/04/30 05:40:16;;;;;;;19.80;10.88;;;;;;;5.09;84.88;102788.50;5007560;28;20041;-57
2022/04/30 05:42:41;;;;;;;20.17;11.50;;;;;;;5.13;85.10;102784.75;5003427;28;20042;-57
2022/04/30 05:45:07;;;;;;;19.48;11.02;;;;;;;5.18;84.47;102788.00;5013962;28;20201;-57
2022/04/30 05:47:33;;;;;;;20.58;11.05;;;;;;;5.23;84.98;102790.44;5013636;28;20029;-57
2022/04/30 05:49:58;;;;;;;21.92;11.70;;;;;;;5.29;85.27;102789.25;5017470;28;20037;-58
2022/04/30 05:52:23;;;;;;;20.15;10.90;;;;;;;5.37;84.89;102787.06;5006080;28;20744;-60
2022/04/30 05:54:49;;;;;;;20.67;11.55;;;;;;;5.45;85.25;102787.53;5013478;28;20030;-59
2022/04/30 05:57:14;;;;;;;22.02;11.60;;;;;;;5.52;84.61;102791.56;5011659;28;20052;-60
2022/04/30 05:59:39;;;;;;;21.02;11.98;;;;;;;5.59;85.12;102792.09;5014158;28;20084;-58
2022/04/30 06:02:05;;;;;;;23.95;12.48;;;;;;;5.68;85.29;102793.41;5012066;28;20033;-56
2022/04/30 06:04:30;;;;;;;21.80;11.70;;;;;;;5.75;84.60;102791.25;5011621;28;20560;-56
2022/04/30 06:06:55;;;;;;;18.33;11.43;;;;;;;5.79;84.77;102793.66;5015355;28;20040;-58
2022/04/30 06:09:21;;;;;;;19.42;11.50;;;;;;;5.89;83.85;102787.91;5006295;28;20379;-57
2022/04/30 06:11:47;;;;;;;20.08;12.15;;;;;;;5.93;84.85;102799.97;5013512;28;20088;-57
2022/04/30 06:14:12;;;;;;;17.30;11.63;;;;;;;6.00;84.69;102795.22;5006110;28;20034;-57
2022/04/30 06:16:38;;;;;;;21.23;11.70;;;;;;;6.08;84.29;102792.22;5012271;28;20030;-56
2022/04/30 06:19:03;;;;;;;17.83;11.10;;;;;;;6.12;83.48;102796.38;5026883;28;20042;-56
2022/04/30 06:21:28;;;;;;;21.52;11.93;;;;;;;6.24;84.63;102803.63;5013059;28;20042;-57
2022/04/30 06:23:53;;;;;;;21.58;12.35;;;;;;;6.30;84.83;102792.72;5011769;28;20069;-57
2022/04/30 06:26:19;;;;;;;19.05;11.40;;;;;;;6.43;84.03;102800.78;5011657;28;20050;-57
2022/04/30 06:28:44;;;;;;;20.63;11.98;;;;;;;6.50;82.58;102801.31;5011683;28;20392;-57
2022/04/30 06:31:09;;;;;;;20.17;11.88;;;;;;;6.54;82.99;102799.34;5012853;28;20041;-59
2022/04/30 06:33:35;;;;;;;19.48;11.65;;;;;;;6.61;83.04;102799.88;5012483;28;20037;-59
2022/04/30 06:36:00;;;;;;;18.33;11.32;;;;;;;6.67;82.11;102807.44;5012546;28;20026;-59
2022/04/30 06:38:25;;;;;;;17.02;11.18;;;;;;;6.71;82.60;102801.88;5009450;28;20034;-59
2022/04/30 06:40:51;;;;;;;17.42;10.73;;;;;;;6.73;82.49;102793.88;5008721;28;20377;-59
2022/04/30 06:43:16;;;;;;;18.63;10.18;;;;;;;6.76;82.10;102792.88;5004901;28;20026;-59
2022/04/30 06:45:42;;;;;;;16.27;10.30;;;;;;;6.69;81.51;102793.22;5004219;28;20041;-59
2022/04/30 06:48:07;;;;;;;18.33;10.88;;;;;;;6.77;82.11;102800.69;5005202;28;20027;-59
2022/04/30 06:50:32;;;;;;;17.92;10.95;;;;;;;6.85;81.39;102792.31;5002976;28;20061;-58
2022/04/30 06:58:25;;;;;;;20.02;10.63;;;;;;;7.26;80.81;102788.22;5003386;28;20029;-56
2022/04/30 07:03:24;;;;;;;21.02;10.70;;;;;;;7.34;79.67;102793.00;5005483;28;20116;-57
2022/04/30 07:05:51;;;;;;;16.75;10.38;;;;;;;7.39;79.11;102797.09;5009707;28;20029;-58
2022/04/30 07:08:16;;;;;;;16.63;10.90;;;;;;;7.51;80.75;102794.66;5012440;28;20041;-56
2022/04/30 07:10:42;;;;;;;19.40;10.30;;;;;;;7.62;78.87;102791.34;5007370;28;20030;-57
2022/04/30 07:13:07;;;;;;;20.05;10.57;;;;;;;7.64;77.74;102798.25;5012311;28;20026;-57
2022/04/30 07:15:32;;;;;;;16.55;10.23;;;;;;;7.77;78.53;102797.50;5008586;28;20026;-58
2022/04/30 07:17:58;;;;;;;17.73;9.48;;;;;;;7.89;77.82;102795.91;5011897;28;20053;-56
2022/04/30 07:20:23;;;;;;;19.05;10.55;;;;;;;7.83;78.09;102798.91;5010251;28;20029;-57
2022/04/30 07:22:48;;;;;;;14.52;9.07;;;;;;;7.92;75.93;102799.19;5011904;28;20026;-57
2022/04/30 07:25:14;;;;;;;18.77;9.35;;;;;;;7.93;77.05;102798.25;5012465;28;20041;-57
2022/04/30 07:27:39;;;;;;;14.95;8.75;;;;;;;7.96;76.28;102806.91;5009977;28;20480;-58
2022/04/30 07:30:06;;;;;;;14.95;9.55;;;;;;;8.12;78.21;102799.72;5012638;28;20077;-57
2022/04/30 07:32:31;;;;;;;12.98;8.63;;;;;;;8.27;74.55;102807.63;5010444;28;20061;-58
2022/04/30 07:34:56;;;;;;;14.48;8.30;;;;;;;8.28;74.92;102793.44;5014689;28;20786;-58
2022/04/30 07:37:21;;;;;;;18.20;8.63;;;;;;;8.25;74.98;102789.25;5010864;28;20038;-59
2022/04/30 07:39:47;;;;;;;13.93;8.27;;;;;;;8.36;75.70;102791.19;5015669;28;20042;-59
2022/04/30 07:42:12;;;;;;;14.15;8.07;;;;;;;8.50;74.22;102792.09;5012280;28;20519;-59
2022/04/30 07:44:37;;;;;;;14.43;8.68;;;;;;;8.67;73.99;102794.50;5012006;28;20030;-57
2022/04/30 07:47:03;;;;;;;14.80;8.35;;;;;;;8.78;72.74;102790.31;5022551;28;20119;-59
2022/04/30 07:49:28;;;;;;;16.55;8.63;;;;;;;8.87;72.80;102784.41;5010142;28;20915;-57
2022/04/30 07:51:55;;;;;;;14.95;8.05;;;;;;;8.88;73.18;102781.66;4997653;28;20116;-58
2022/04/30 07:54:21;;;;;;;14.77;8.35;;;;;;;9.08;74.10;102781.28;5006463;28;20038;-58
2022/04/30 07:56:47;;;;;;;12.77;7.78;;;;;;;9.19;71.40;102783.19;5000019;28;20117;-58
2022/04/30 07:59:12;;;;;;;15.45;8.02;;;;;;;9.36;73.12;102789.97;5001407;28;20526;-57
2022/04/30 08:01:38;;;;;;;15.23;7.75;;;;;;;9.17;71.00;102788.59;5005813;28;20361;-57
2022/04/30 08:04:03;;;;;;;13.93;7.72;;;;;;;9.08;71.19;102786.56;5010576;28;21971;-57
2022/04/30 08:06:28;;;;;;;14.57;7.78;;;;;;;9.21;70.76;102776.84;5007896;28;20104;-58
2022/04/30 08:08:53;;;;;;;14.85;7.03;;;;;;;9.24;69.77;102781.09;5018283;28;20053;-59
2022/04/30 08:11:19;;;;;;;13.85;7.47;;;;;;;9.37;72.12;102781.94;5004241;28;20701;-58
2022/04/30 08:13:44;;;;;;;11.27;7.10;;;;;;;9.42;71.14;102781.59;5000595;28;20083;-59
2022/04/30 08:16:10;;;;;;;11.82;7.50;;;;;;;9.62;69.66;102784.69;5000134;28;20645;-59
2022/04/30 08:18:37;;;;;;;11.13;6.32;;;;;;;9.75;68.60;102774.94;5008699;28;20032;-58
2022/04/30 08:21:04;;;;;;;15.25;7.28;;;;;;;9.96;68.22;102777.00;5013524;28;20099;-58
2022/04/30 08:23:29;;;;;;;13.55;7.65;;;;;;;9.99;68.92;102776.78;5010738;28;20045;-58
2022/04/30 08:25:54;;;;;;;13.32;7.20;;;;;;;10.11;70.91;102775.06;5009101;28;20041;-58
2022/04/30 08:28:19;;;;;;;12.25;6.40;;;;;;;10.17;67.37;102782.56;5010624;28;20400;-58
2022/04/30 08:30:45;;;;;;;13.95;6.68;;;;;;;10.15;66.21;102784.47;5006052;28;20029;-58
2022/04/30 08:33:10;;;;;;;12.45;6.82;;;;;;;9.80;67.19;102780.75;5009275;28;20045;-59
2022/04/30 08:35:36;;;;;;;22.90;7.07;;;;;;;9.60;69.21;102781.28;5008433;28;20460;-59
2022/04/30 08:38:01;;;;;;;9.88;7.35;;;;;;;9.46;70.64;102771.66;5002328;28;20038;-59
2022/04/30 08:40:26;;;;;;;15.52;7.65;;;;;;;9.36;69.53;102774.94;5006607;28;20038;-57
2022/04/30 08:42:51;;;;;;;11.35;6.78;;;;;;;9.24;69.76;102768.69;5001104;28;20386;-58
2022/04/30 08:45:21;;;;;;;14.27;6.95;;;;;;;9.14;70.26;102765.81;5003112;28;20022;-59
2022/04/30 08:47:47;;;;;;;12.18;7.18;;;;;;;9.09;70.01;102767.09;5010113;28;20033;-59
2022/04/30 08:50:14;;;;;;;11.73;7.00;;;;;;;9.11;68.98;102765.19;5024474;28;20128;-59
2022/04/30 08:52:41;;;;;;;17.38;7.30;;;;;;;9.05;68.59;102765.59;5005535;28;20085;-59
2022/04/30 08:55:07;;;;;;;11.63;7.60;;;;;;;9.01;69.75;102765.81;5010823;28;20034;-58
2022/04/30 08:57:33;;;;;;;11.80;7.70;;;;;;;8.90;69.93;102768.34;5015013;28;20026;-59
2022/04/30 08:59:59;;;;;;;12.95;8.07;;;;;;;9.17;70.10;102759.47;5013186;28;20041;-59
2022/04/30 09:02:25;;;;;;;15.65;8.10;;;;;;;9.13;71.73;102760.66;5014627;28;20049;-59
2022/04/30 09:04:51;;;;;;;14.80;7.93;;;;;;;9.39;70.46;102764.13;5014560;28;20087;-59
2022/04/30 09:07:19;;;;;;;13.65;7.13;;;;;;;9.42;70.17;102768.38;5009970;28;20473;-58
2022/04/30 09:09:59;;;;;;;13.07;7.20;;;;;;;9.44;70.20;102761.19;5009832;28;20041;-59
2022/04/30 09:12:26;;;;;;;10.68;6.50;;;;;;;9.39;70.47;102760.66;5013517;28;20372;-59
2022/04/30 09:14:52;;;;;;;12.50;7.22;;;;;;;9.42;68.37;102757.78;5013114;28;20059;-59
2022/04/30 09:17:18;;;;;;;15.15;7.30;;;;;;;9.47;69.54;102766.25;5014203;28;20038;-59
2022/04/30 09:19:51;;;;;;;13.43;7.10;;;;;;;9.38;68.04;102761.63;5013674;28;20041;-59
2022/04/30 09:22:27;;;;;;;10.95;7.30;;;;;;;9.49;69.27;102766.16;5014594;28;20109;-59
2022/04/30 09:24:53;;;;;;;13.35;6.82;;;;;;;9.53;67.50;102759.69;5013814;28;20058;-59
2022/04/30 09:27:18;;;;;;;12.35;7.32;;;;;;;9.57;69.08;102762.97;5014027;28;20113;-59
2022/04/30 09:29:44;;;;;;;12.57;7.00;;;;;;;9.61;66.46;102752.06;5013169;28;20045;-59
2022/04/30 09:32:24;;;;;;;11.52;7.15;;;;;;;9.50;68.32;102736.91;5016204;28;20053;-59
2022/04/30 09:37:41;;;;;;;12.77;7.53;;;;;;;9.57;68.41;102739.13;5013957;28;20101;-59
2022/04/30 09:40:20;;;;;;;12.48;7.43;;;;;;;9.54;67.71;102735.72;5013623;28;20026;-59
2022/04/30 09:42:46;;;;;;;15.50;7.50;;;;;;;9.63;68.63;102744.00;5019349;28;20388;-59
2022/04/30 09:45:22;;;;;;;12.40;7.45;;;;;;;9.66;68.04;102741.13;5019161;28;20026;-60
2022/04/30 09:47:47;;;;;;;11.60;6.63;;;;;;;9.69;65.18;102739.09;5002756;28;20034;-59
2022/04/30 09:55:42;;;;;;;12.13;6.78;;;;;;;9.69;64.81;102732.97;5013537;28;20120;-59
2022/04/30 09:58:09;;;;;;;10.93;6.60;;;;;;;9.83;63.91;102730.19;5013131;28;20057;-59
2022/04/30 10:00:35;;;;;;;11.13;7.15;;;;;;;10.02;64.35;102723.53;5013167;28;20026;-59
2022/04/30 10:03:02;;;;;;;11.73;6.97;;;;;;;10.14;65.69;102720.97;5013884;28;20032;-59
2022/04/30 10:05:30;;;;;;;10.82;5.95;;;;;;;10.29;61.92;102725.16;5013540;28;20107;-58
2022/04/30 10:07:55;;;;;;;11.48;5.75;;;;;;;10.43;60.97;102710.91;5021245;28;20468;-59
2022/04/30 10:10:29;;;;;;;10.18;5.97;;;;;;;10.44;63.11;102723.19;5011816;28;20033;-59
2022/04/30 10:13:07;;;;;;;10.18;6.35;;;;;;;10.49;60.07;102704.28;5009053;28;20177;-59
2022/04/30 10:15:50;;;;;;;9.93;5.97;;;;;;;10.61;61.33;102711.31;5006308;28;20033;-57
2022/04/30 10:18:18;;;;;;;13.43;6.20;;;;;;;10.57;60.50;102707.19;5035766;28;20368;-57
2022/04/30 10:20:56;;;;;;;12.70;6.20;;;;;;;10.55;58.90;102703.00;5013060;28;20040;-58
2022/04/30 10:23:21;;;;;;;11.23;6.13;;;;;;;10.67;60.37;102701.22;5004245;28;20088;-58
2022/04/30 10:25:47;;;;;;;10.38;6.22;;;;;;;10.66;58.83;102705.66;5013001;28;20400;-57
2022/04/30 10:28:15;;;;;;;10.40;6.30;;;;;;;10.66;58.52;102700.34;5005458;28;20056;-54
2022/04/30 10:30:42;;;;;;;10.25;5.70;;;;;;;10.40;55.88;102694.34;5012814;28;20029;-50
2022/04/30 10:33:09;;;;;;;9.95;5.40;;;;;;;10.55;58.57;102703.81;5010478;28;20369;-56
2022/04/30 10:35:36;;;;;;;7.88;5.10;;;;;;;10.53;58.16;102697.81;5013503;28;20030;-54
2022/04/30 10:38:28;;;;;;;8.73;4.68;;;;;;;10.55;57.71;102698.53;5013487;28;20026;-57
2022/04/30 10:40:58;;;;;;;9.07;4.82;;;;;;;10.49;56.15;102694.53;5011480;28;20038;-57
2022/04/30 10:43:26;;;;;;;6.70;4.97;;;;;;;10.53;57.74;102689.84;5012969;28;20085;-57
2022/04/30 10:45:52;;;;;;;6.65;4.63;;;;;;;10.70;57.25;102683.25;5013292;28;20025;-57
2022/04/30 10:48:19;;;;;;;8.35;4.80;;;;;;;10.95;54.46;102685.84;5024135;28;20464;-56
2022/04/30 10:50:45;;;;;;;6.95;4.65;;;;;;;11.30;54.49;102676.94;5011866;28;20121;-59
2022/04/30 10:53:13;;;;;;;9.60;4.25;;;;;;;11.57;51.81;102673.03;5010219;28;20022;-59
2022/04/30 10:55:39;;;;;;;9.32;4.10;;;;;;;11.83;50.69;102672.75;5012145;28;20033;-60
2022/04/30 10:58:05;;;;;;;6.22;4.50;;;;;;;11.91;49.83;102662.34;5012391;28;20029;-59
2022/04/30 11:00:31;;;;;;;6.55;4.60;;;;;;;11.86;49.16;102667.19;5011591;28;20092;-59
2022/04/30 11:03:07;;;;;;;7.15;4.72;;;;;;;11.81;51.36;102653.44;5012487;28;20557;-59
2022/04/30 11:05:32;;;;;;;8.35;5.07;;;;;;;11.87;52.43;102658.25;5000259;28;20077;-59
2022/04/30 11:08:01;;;;;;;6.68;4.88;;;;;;;11.79;51.40;102650.88;5011893;28;20054;-59
2022/04/30 11:10:26;;;;;;;11.55;5.05;;;;;;;11.63;50.34;102653.94;5015706;28;20033;-58
2022/04/30 11:13:09;;;;;;;6.75;5.18;;;;;;;11.60;51.88;102643.56;5018796;28;20029;-57
2022/04/30 11:15:35;;;;;;;6.40;4.53;;;;;;;11.75;49.32;102645.97;5002453;28;20034;-58
2022/04/30 11:18:00;;;;;;;6.97;4.70;;;;;;;11.94;50.11;102648.78;5012408;28;20088;-57
2022/04/30 11:20:26;;;;;;;7.03;4.38;;;;;;;11.97;48.63;102642.38;5011025;28;20069;-55
2022/04/30 11:22:57;;;;;;;7.50;4.57;;;;;;;12.03;48.25;102635.72;5011697;28;20046;-57
2022/04/30 11:25:23;;;;;;;6.05;4.50;;;;;;;12.17;48.55;102634.59;5016570;28;20139;-57
2022/04/30 11:27:57;;;;;;;7.15;4.53;;;;;;;12.44;49.47;102628.75;5012436;28;20520;-57
2022/04/30 11:30:22;;;;;;;7.85;4.63;;;;;;;12.71;49.48;102630.06;5012105;28;20041;-57
2022/04/30 11:32:48;;;;;;;6.72;4.95;;;;;;;12.72;48.04;102628.22;5012284;28;20100;-57
2022/04/30 11:35:16;;;;;;;5.95;4.60;;;;;;;12.78;47.48;102628.56;5011768;28;20022;-57
2022/04/30 11:37:45;;;;;;;6.28;4.70;;;;;;;13.09;48.23;102621.53;5012384;28;20028;-57
2022/04/30 11:40:11;;;;;;;5.63;4.25;;;;;;;12.98;44.71;102614.50;5010636;28;20105;-57
2022/04/30 11:42:36;;;;;;;7.40;4.47;;;;;;;12.84;45.29;102618.34;5012125;28;20468;-57
2022/04/30 11:45:02;;;;;;;6.05;4.90;;;;;;;12.70;47.04;102617.75;5010875;28;20041;-57
2022/04/30 11:47:27;;;;;;;6.80;5.05;;;;;;;12.46;48.37;102616.19;5011101;28;20481;-57
2022/04/30 11:50:09;;;;;;;10.07;5.88;;;;;;;12.65;49.80;102625.28;5012041;28;20025;-57
2022/04/30 11:52:36;;;;;;;10.48;6.80;;;;;;;12.31;52.34;102623.66;5000505;28;20453;-58
2022/04/30 11:55:05;;;;;;;12.25;7.05;;;;;;;11.92;53.64;102624.16;5011867;28;20529;-57
2022/04/30 11:57:34;;;;;;;14.35;7.80;;;;;;;11.79;55.63;102618.16;5011411;28;20088;-57